Time;durP1;ratioP1;P1;durP2;ratioP2;P2;SDS_P1;SDS_P2;PMS_P1;PMS_P2;Temp;Humidity;BMP_temperature;BMP_pressure;BME280_temperature;BME280_humidity;BME280_pressure;Samples;Min_cycle;Max_cycle;Signal;HPM_P1;HPM_P2
2021/12/27 00:01:31;;;;;;;140.63;55.08;;;-7.90;99.90;;;-8.35;64.88;98603.03;5015539;28;20041;-79
2021/12/27 00:03:58;;;;;;;151.30;59.70;;;-8.00;99.90;;;-8.40;65.31;98605.34;5017769;28;20041;-79
2021/12/27 00:06:24;;;;;;;164.75;60.28;;;-8.00;99.90;;;-8.40;65.18;98598.28;5029052;28;20029;-79
2021/12/27 00:08:51;;;;;;;145.23;56.55;;;-8.00;99.90;;;-8.35;64.96;98598.59;4994350;28;20057;-79
2021/12/27 00:11:17;;;;;;;132.35;51.33;;;-8.00;99.90;;;-8.37;65.40;98586.56;5031761;28;20037;-79
2021/12/27 00:13:43;;;;;;;132.15;56.03;;;-8.00;99.90;;;-8.42;65.17;98591.53;4999106;28;20045;-79
2021/12/27 00:16:09;;;;;;;135.50;51.85;;;-8.00;99.90;;;-8.41;65.43;98590.56;5031091;28;20095;-79
2021/12/27 00:18:36;;;;;;;121.32;50.17;;;-8.00;99.90;;;-8.38;65.61;98579.69;5011349;28;20120;-79
2021/12/27 00:21:02;;;;;;;137.40;52.67;;;-8.00;99.90;;;-8.40;65.44;98582.50;5013103;28;20044;-79
2021/12/27 00:23:28;;;;;;;220.13;88.85;;;-8.00;99.90;;;-8.40;65.91;98581.66;5013765;28;20071;-79
2021/12/27 00:25:55;;;;;;;116.57;50.95;;;-8.00;99.90;;;-8.37;65.78;98586.56;5017226;28;20086;-79
2021/12/27 00:28:21;;;;;;;188.35;79.68;;;-8.00;99.90;;;-8.35;65.51;98585.44;5013836;28;20041;-79
2021/12/27 00:30:46;;;;;;;160.63;65.55;;;-8.00;99.90;;;-8.35;65.68;98587.25;5000048;28;20045;-79
2021/12/27 00:33:13;;;;;;;161.57;63.08;;;-7.90;99.90;;;-8.38;65.76;98582.31;5007741;28;20499;-79
2021/12/27 00:35:40;;;;;;;159.90;61.50;;;-7.90;99.90;;;-8.34;65.67;98583.66;4998092;28;20045;-79
2021/12/27 00:38:06;;;;;;;140.82;54.38;;;-8.00;99.90;;;-8.33;65.92;98580.03;5028637;28;20420;-79
2021/12/27 00:40:32;;;;;;;114.72;46.05;;;-7.90;99.90;;;-8.35;65.94;98582.00;4998352;28;20684;-79
2021/12/27 00:42:58;;;;;;;131.38;51.10;;;-7.90;99.90;;;-8.33;65.92;98577.41;5014443;28;20045;-79
2021/12/27 00:45:24;;;;;;;123.90;49.42;;;-7.90;99.90;;;-8.32;66.16;98573.78;5010370;28;20045;-78
2021/12/27 00:47:51;;;;;;;136.07;49.58;;;-7.90;99.90;;;-8.32;65.84;98582.50;5000718;28;20469;-79
2021/12/27 00:50:17;;;;;;;146.18;54.97;;;-7.90;99.90;;;-8.33;65.94;98583.47;4980022;28;20139;-79
2021/12/27 00:52:42;;;;;;;144.32;55.05;;;-7.90;99.90;;;-8.33;65.95;98582.66;4995118;28;20095;-79
2021/12/27 00:55:10;;;;;;;157.60;58.60;;;-7.90;99.90;;;-8.31;65.94;98585.97;4998110;28;20524;-78
2021/12/27 00:57:39;;;;;;;157.80;58.15;;;-7.90;99.90;;;-8.30;65.90;98585.78;4983900;28;20041;-78
2021/12/27 01:00:11;;;;;;;157.65;55.92;;;-7.90;99.90;;;-8.30;65.68;98588.41;5042236;28;20385;-79
2021/12/27 01:02:37;;;;;;;150.88;57.00;;;-7.80;99.90;;;-8.31;65.73;98584.16;5012306;28;20052;-78
2021/12/27 01:05:03;;;;;;;148.13;56.42;;;-7.80;99.90;;;-8.30;66.18;98588.41;5014059;28;20436;-79
2021/12/27 01:07:29;;;;;;;153.40;56.53;;;-7.80;99.90;;;-8.32;65.70;98590.41;5015180;28;20091;-79
2021/12/27 01:10:18;;;;;;;140.80;54.00;;;-7.80;99.90;;;-8.30;65.88;98583.16;4993902;28;20044;-79
2021/12/27 01:13:03;;;;;;;152.05;56.90;;;-7.80;99.90;;;-8.32;65.78;98584.28;5016482;28;20124;-79
2021/12/27 01:17:59;;;;;;;184.35;67.47;;;-7.90;99.90;;;-8.33;66.49;98577.41;5030756;28;20056;-79
2021/12/27 01:20:26;;;;;;;193.18;65.70;;;-7.90;99.90;;;-8.33;66.08;98583.47;5024996;28;20041;-79
2021/12/27 01:22:53;;;;;;;211.48;68.82;;;-7.90;99.90;;;-8.29;65.83;98584.00;5011565;28;20045;-79
2021/12/27 01:25:19;;;;;;;203.60;71.00;;;-7.90;99.90;;;-8.27;65.90;98582.00;5032127;28;20041;-79
2021/12/27 01:27:45;;;;;;;165.90;64.65;;;-7.90;99.90;;;-8.28;65.63;98583.00;5002142;28;20356;-79
2021/12/27 01:30:19;;;;;;;141.57;54.83;;;-7.90;99.90;;;-8.29;65.34;98591.91;4997649;28;20043;-79
2021/12/27 01:32:50;;;;;;;142.02;58.85;;;-7.90;99.90;;;-8.31;65.65;98588.59;5015405;28;20088;-78
2021/12/27 01:35:17;;;;;;;148.20;57.17;;;-7.90;99.90;;;-8.35;65.90;98593.34;5010278;28;20045;-79
2021/12/27 01:37:43;;;;;;;129.70;55.83;;;-7.90;99.90;;;-8.40;65.53;98594.81;4997095;28;20045;-78
2021/12/27 01:40:10;;;;;;;139.30;57.63;;;-8.00;99.90;;;-8.38;65.79;98584.94;5011785;28;20048;-79
2021/12/27 01:42:36;;;;;;;149.25;56.67;;;-7.90;99.90;;;-8.32;65.68;98584.28;5010179;28;20041;-79
2021/12/27 01:45:04;;;;;;;146.85;56.72;;;-7.90;99.90;;;-8.32;66.10;98581.66;5026289;28;20033;-79
2021/12/27 01:47:31;;;;;;;151.38;52.97;;;-7.90;99.90;;;-8.35;65.75;98587.25;4996194;28;20107;-79
2021/12/27 01:49:57;;;;;;;148.65;57.63;;;-7.90;99.90;;;-8.36;65.92;98582.97;4997145;28;20084;-79
2021/12/27 01:52:23;;;;;;;162.13;62.60;;;-7.90;99.90;;;-8.43;66.00;98579.34;5026135;28;20033;-79
2021/12/27 01:54:52;;;;;;;161.05;61.50;;;-8.00;99.90;;;-8.45;66.05;98579.50;5002847;28;20041;-79
2021/12/27 01:57:19;;;;;;;160.77;62.78;;;-8.00;99.90;;;-8.49;65.67;98562.41;5031242;28;20131;-79
2021/12/27 01:59:44;;;;;;;152.00;56.92;;;-8.00;99.90;;;-8.50;65.88;98568.63;5013783;28;20651;-78
2021/12/27 02:02:12;;;;;;;137.23;55.55;;;-8.10;99.90;;;-8.50;65.93;98562.56;5014786;28;20477;-78
2021/12/27 02:04:38;;;;;;;143.77;57.53;;;-8.10;99.90;;;-8.55;66.03;98569.13;5001352;28;20423;-78
2021/12/27 02:07:04;;;;;;;161.43;59.70;;;-8.10;99.90;;;-8.57;66.02;98565.84;5001575;28;20103;-79
2021/12/27 02:09:41;;;;;;;137.07;55.22;;;-8.10;99.90;;;-8.57;65.73;98560.56;5017184;28;20385;-79
2021/12/27 02:12:10;;;;;;;159.95;55.78;;;-8.10;99.90;;;-8.61;65.61;98559.22;5018125;28;20493;-78
2021/12/27 02:14:36;;;;;;;141.80;57.95;;;-8.20;99.90;;;-8.63;65.55;98557.72;5037118;28;20051;-78
2021/12/27 02:17:05;;;;;;;152.43;55.58;;;-8.20;99.90;;;-8.68;65.87;98560.81;5013735;28;20084;-79
2021/12/27 02:19:35;;;;;;;146.23;53.92;;;-8.20;99.90;;;-8.70;65.77;98562.81;5016391;28;20698;-79
2021/12/27 02:22:01;;;;;;;149.15;57.95;;;-8.30;99.90;;;-8.73;66.39;98555.22;4999654;28;20048;-79
2021/12/27 02:24:27;;;;;;;138.55;56.83;;;-8.30;99.90;;;-8.70;66.21;98552.28;5001511;28;20041;-79
2021/12/27 02:26:53;;;;;;;139.85;59.40;;;-8.30;99.90;;;-8.73;65.95;98560.47;4997569;28;20183;-79
2021/12/27 02:29:19;;;;;;;149.30;56.30;;;-8.30;99.90;;;-8.67;66.11;98553.78;5016968;28;20131;-78
2021/12/27 02:31:45;;;;;;;129.50;52.60;;;-8.30;99.90;;;-8.67;66.61;98548.53;5030618;28;20756;-79
2021/12/27 02:34:11;;;;;;;137.70;55.72;;;-8.20;99.90;;;-8.65;66.45;98543.91;5001736;28;20434;-79
2021/12/27 02:36:37;;;;;;;133.77;53.08;;;-8.20;99.90;;;-8.64;66.18;98541.13;5012660;28;20077;-79
2021/12/27 02:39:03;;;;;;;140.13;54.15;;;-8.20;99.90;;;-8.61;66.21;98540.00;5019025;28;20118;-79
2021/12/27 02:41:29;;;;;;;147.90;55.08;;;-8.20;99.90;;;-8.59;66.51;98546.75;5019544;28;20045;-79
2021/12/27 02:43:56;;;;;;;139.50;54.40;;;-8.20;99.90;;;-8.61;66.47;98551.34;4998624;28;20037;-79
2021/12/27 02:46:21;;;;;;;141.65;54.47;;;-8.10;99.90;;;-8.64;66.50;98549.03;5029584;28;20111;-78
2021/12/27 02:48:48;;;;;;;134.82;51.75;;;-8.20;99.90;;;-8.68;66.26;98550.31;5013824;28;20428;-78
2021/12/27 02:51:17;;;;;;;140.80;57.90;;;-8.20;99.90;;;-8.70;66.01;98556.72;4995538;28;20083;-79
2021/12/27 02:53:44;;;;;;;145.30;57.63;;;-8.20;99.90;;;-8.73;66.22;98542.06;5032833;28;20047;-79
2021/12/27 02:56:10;;;;;;;153.90;61.05;;;-8.20;99.90;;;-8.77;66.33;98540.75;5001087;28;20055;-79
2021/12/27 02:58:36;;;;;;;178.18;62.10;;;-8.20;99.90;;;-8.75;66.32;98536.13;4997311;28;20041;-78
2021/12/27 03:01:09;;;;;;;164.60;59.53;;;-8.30;99.90;;;-8.81;66.43;98542.03;5015428;28;20080;-79
2021/12/27 03:03:35;;;;;;;147.25;57.67;;;-8.30;99.90;;;-8.86;66.43;98544.31;5015388;28;20571;-79
2021/12/27 03:06:01;;;;;;;152.20;58.35;;;-8.30;99.90;;;-8.87;66.61;98530.34;5013987;28;20038;-79
2021/12/27 03:08:27;;;;;;;142.00;56.53;;;-8.40;99.90;;;-8.82;66.59;98527.25;4996921;28;20385;-79
2021/12/27 03:10:58;;;;;;;150.80;58.80;;;-8.40;99.90;;;-8.82;66.05;98537.78;4997976;28;20049;-79
2021/12/27 03:13:27;;;;;;;134.95;56.50;;;-8.40;99.90;;;-8.87;66.28;98532.16;5013637;28;20044;-78
2021/12/27 03:15:59;;;;;;;159.32;64.15;;;-8.50;99.90;;;-8.88;66.28;98526.06;5000478;28;20049;-78
2021/12/27 03:18:25;;;;;;;185.73;66.57;;;-8.50;99.90;;;-8.90;66.32;98524.56;5014918;28;20045;-79
2021/12/27 03:20:52;;;;;;;161.52;64.47;;;-8.40;99.90;;;-8.83;66.36;98526.41;4999543;28;20041;-79
2021/12/27 03:23:18;;;;;;;149.57;64.05;;;-8.40;99.90;;;-8.85;66.65;98525.75;5014240;28;20373;-78
2021/12/27 03:25:44;;;;;;;173.50;65.13;;;-8.40;99.90;;;-8.85;66.40;98515.25;5015422;28;21499;-79
2021/12/27 03:28:11;;;;;;;168.93;69.22;;;-8.40;99.90;;;-8.73;66.92;98526.28;5029810;28;20056;-78
2021/12/27 03:30:37;;;;;;;157.70;64.82;;;-8.30;99.90;;;-8.58;67.15;98522.09;5014593;28;20160;-78
2021/12/27 03:33:03;;;;;;;144.52;62.38;;;-8.10;99.90;;;-8.42;66.97;98526.59;5030647;28;20045;-79
2021/12/27 03:35:35;;;;;;;150.52;64.63;;;-8.00;99.90;;;-8.25;66.95;98527.44;4998483;28;20129;-78
2021/12/27 03:38:03;;;;;;;152.85;66.85;;;-7.90;99.90;;;-8.07;66.79;98525.50;5020261;28;20045;-79
2021/12/27 03:40:29;;;;;;;158.18;66.13;;;-7.70;99.90;;;-7.93;66.59;98526.69;5029344;28;20041;-79
2021/12/27 03:42:55;;;;;;;154.48;65.38;;;-7.50;99.90;;;-7.88;66.39;98534.91;5032963;28;20509;-79
2021/12/27 03:45:34;;;;;;;159.60;65.75;;;-7.40;99.90;;;-7.79;66.12;98537.56;4981704;28;20088;-78
2021/12/27 03:48:00;;;;;;;163.98;65.72;;;-7.30;99.90;;;-7.75;65.91;98542.34;5000005;28;20120;-78
2021/12/27 03:50:26;;;;;;;149.65;63.90;;;-7.30;99.90;;;-7.64;65.81;98547.28;5012061;28;20063;-78
2021/12/27 03:52:53;;;;;;;137.85;59.35;;;-7.20;99.90;;;-7.60;65.59;98529.34;5016191;28;20045;-78
2021/12/27 03:55:19;;;;;;;143.35;61.45;;;-7.10;99.90;;;-7.53;65.13;98530.34;4998916;28;20048;-78
2021/12/27 03:57:52;;;;;;;157.82;66.35;;;-7.10;99.90;;;-7.56;65.36;98535.91;5010795;28;20176;-78
2021/12/27 04:02:47;;;;;;;164.32;67.07;;;-7.10;99.90;;;-7.49;65.06;98538.72;5015998;28;20176;-78
2021/12/27 04:05:14;;;;;;;184.23;74.22;;;-6.90;99.90;;;-7.51;65.32;98540.69;5028788;28;20047;-78
2021/12/27 04:07:40;;;;;;;180.98;69.10;;;-6.90;99.90;;;-7.58;64.62;98537.06;4997641;28;20140;-78
2021/12/27 04:10:08;;;;;;;171.32;68.72;;;-6.90;99.90;;;-7.59;65.13;98538.88;4985030;28;20047;-78
2021/12/27 04:12:34;;;;;;;162.23;65.72;;;-7.00;99.90;;;-7.55;65.12;98539.41;4998317;28;20135;-78
2021/12/27 04:15:00;;;;;;;165.07;68.75;;;-7.00;99.90;;;-7.58;64.85;98539.69;5029074;28;20053;-78
2021/12/27 04:17:26;;;;;;;169.43;67.03;;;-7.10;99.90;;;-7.66;64.62;98524.72;5013727;28;20065;-78
2021/12/27 04:19:52;;;;;;;172.02;72.00;;;-7.10;99.90;;;-7.66;64.64;98532.63;5013881;28;20069;-78
2021/12/27 04:22:18;;;;;;;170.30;67.47;;;-7.10;99.90;;;-7.70;64.62;98542.66;5028987;28;20229;-78
2021/12/27 04:24:44;;;;;;;165.02;67.40;;;-7.10;99.90;;;-7.69;64.33;98539.03;5012023;28;20049;-78
2021/12/27 04:27:10;;;;;;;172.07;67.60;;;-7.00;99.90;;;-7.70;64.60;98541.84;4981384;28;21587;-78
2021/12/27 04:29:36;;;;;;;158.02;66.00;;;-7.10;99.90;;;-7.71;64.97;98543.66;4998847;28;20068;-78
2021/12/27 04:32:03;;;;;;;161.23;67.35;;;-7.10;99.90;;;-7.71;64.91;98554.19;4980307;28;20033;-79
2021/12/27 04:34:29;;;;;;;140.77;60.83;;;-7.10;99.90;;;-7.73;64.93;98560.63;4997069;28;20048;-78
2021/12/27 04:36:55;;;;;;;144.18;59.80;;;-7.20;99.90;;;-7.71;64.93;98559.47;5013466;28;20064;-78
2021/12/27 04:39:21;;;;;;;114.60;47.58;;;-7.20;99.90;;;-7.77;64.08;98556.66;5013541;28;20122;-78
2021/12/27 04:41:49;;;;;;;100.30;42.63;;;-7.20;99.90;;;-7.86;64.83;98563.72;5008859;28;20105;-79
2021/12/27 04:44:15;;;;;;;117.95;48.97;;;-7.20;99.90;;;-7.89;64.65;98558.75;4994273;28;20041;-78
2021/12/27 04:46:46;;;;;;;108.32;40.17;;;-7.30;99.90;;;-7.86;65.10;98558.47;5010971;28;20045;-78
2021/12/27 04:49:12;;;;;;;102.13;40.80;;;-7.30;99.90;;;-7.86;65.28;98553.19;4994843;28;20119;-78
2021/12/27 04:51:37;;;;;;;104.15;41.35;;;-7.30;99.90;;;-7.87;65.18;98554.97;5025769;28;20160;-78
2021/12/27 04:54:04;;;;;;;100.00;40.15;;;-7.40;99.90;;;-7.92;65.48;98559.09;5026536;28;20396;-78
2021/12/27 04:56:30;;;;;;;102.97;42.85;;;-7.40;99.90;;;-7.89;65.52;98562.22;5012824;28;20056;-78
2021/12/27 04:58:56;;;;;;;113.63;41.13;;;-7.40;99.90;;;-7.83;64.99;98570.47;4999935;28;20068;-78
2021/12/27 05:01:23;;;;;;;98.63;37.85;;;-7.30;99.90;;;-7.79;65.56;98569.97;4984153;28;20055;-78
2021/12/27 05:03:49;;;;;;;105.25;38.42;;;-7.20;99.90;;;-7.77;65.51;98578.53;4994649;28;20076;-79
2021/12/27 05:06:15;;;;;;;113.40;40.92;;;-7.30;99.90;;;-7.76;65.17;98577.56;5025497;28;20042;-79
2021/12/27 05:08:41;;;;;;;96.20;41.58;;;-7.30;99.90;;;-7.69;65.80;98578.53;4991981;28;20098;-79
2021/12/27 05:11:08;;;;;;;106.35;42.72;;;-7.20;99.90;;;-7.65;65.89;98573.78;5024926;28;20041;-79
2021/12/27 05:13:35;;;;;;;108.20;38.50;;;-7.20;99.90;;;-7.57;65.80;98572.97;4993895;28;20049;-78
2021/12/27 05:16:01;;;;;;;109.80;39.88;;;-7.20;99.90;;;-7.45;65.33;98579.56;5010257;28;20105;-78
2021/12/27 05:18:27;;;;;;;98.03;38.47;;;-7.10;99.90;;;-7.43;65.16;98578.44;5012673;28;20511;-78
2021/12/27 05:20:53;;;;;;;91.68;37.20;;;-7.00;99.90;;;-7.36;65.41;98578.56;5012232;28;20095;-79
2021/12/27 05:23:19;;;;;;;101.30;35.90;;;-6.90;99.90;;;-7.31;64.86;98578.09;4991020;28;20034;-78
2021/12/27 05:25:45;;;;;;;93.30;38.45;;;-6.90;99.90;;;-7.36;65.15;98581.22;5000601;28;20557;-78
2021/12/27 05:28:11;;;;;;;109.97;38.00;;;-6.90;99.90;;;-7.29;65.06;98581.38;5000887;28;20071;-80
2021/12/27 05:30:38;;;;;;;94.95;37.97;;;-6.90;99.90;;;-7.32;64.96;98573.81;5014137;28;20171;-78
2021/12/27 05:33:04;;;;;;;83.68;33.83;;;-6.90;99.90;;;-7.22;64.87;98572.66;5002989;28;20044;-78
2021/12/27 05:35:30;;;;;;;81.45;34.30;;;-6.80;99.90;;;-7.28;64.85;98572.47;5010338;28;20068;-79
2021/12/27 05:37:56;;;;;;;82.30;34.70;;;-6.70;99.90;;;-7.25;65.15;98567.72;4985100;28;20075;-79
2021/12/27 05:40:22;;;;;;;81.25;31.83;;;-6.70;99.90;;;-7.19;64.83;98565.41;5015234;28;20119;-79
2021/12/27 05:42:53;;;;;;;89.25;34.60;;;-6.70;99.90;;;-7.21;64.92;98557.66;5030859;28;20488;-79
2021/12/27 05:45:19;;;;;;;89.00;33.72;;;-6.60;99.90;;;-7.18;65.17;98554.69;4994262;28;20060;-78
2021/12/27 05:47:45;;;;;;;89.68;32.13;;;-6.70;99.90;;;-7.15;64.95;98553.53;5012642;28;20103;-79
2021/12/27 05:50:12;;;;;;;92.40;34.55;;;-6.70;99.90;;;-7.20;65.38;98556.66;4980561;28;20068;-79
2021/12/27 05:52:38;;;;;;;103.13;37.47;;;-6.60;99.90;;;-7.24;65.32;98552.72;5015086;28;20086;-79
2021/12/27 05:55:04;;;;;;;92.32;33.90;;;-6.60;99.90;;;-7.23;65.66;98549.91;5011420;28;20476;-78
2021/12/27 05:57:30;;;;;;;92.25;38.05;;;-6.60;99.90;;;-7.11;66.02;98554.84;5013370;28;20033;-83
2021/12/27 05:59:57;;;;;;;97.00;37.28;;;-6.60;99.90;;;-7.00;65.67;98557.94;4996498;28;20117;-81
2021/12/27 06:02:23;;;;;;;105.05;36.33;;;-6.60;99.90;;;-6.87;66.06;98552.19;5034488;28;20041;-81
2021/12/27 06:04:49;;;;;;;96.57;37.95;;;-6.60;99.90;;;-6.85;65.60;98558.09;5013025;28;20044;-81
2021/12/27 06:07:16;;;;;;;100.78;34.85;;;-6.40;99.90;;;-6.80;65.54;98541.75;4985954;28;20223;-81
2021/12/27 06:09:41;;;;;;;105.00;36.80;;;-6.30;99.90;;;-6.84;65.58;98551.84;5014223;28;20131;-81
2021/12/27 06:12:09;;;;;;;111.05;40.30;;;-6.40;99.90;;;-6.79;65.70;98546.88;5016183;28;20152;-81
2021/12/27 06:14:35;;;;;;;129.82;53.05;;;-6.40;99.90;;;-6.75;65.85;98559.72;5001860;28;20583;-81
2021/12/27 06:17:03;;;;;;;106.25;34.47;;;-6.30;99.90;;;-6.79;66.05;98543.41;4984005;28;20126;-81
2021/12/27 06:19:29;;;;;;;105.78;39.25;;;-6.30;99.90;;;-6.81;65.92;98533.03;5016042;28;20071;-81
2021/12/27 06:21:55;;;;;;;108.40;34.00;;;-6.30;99.90;;;-6.77;65.88;98538.78;4999569;28;20116;-79
2021/12/27 06:24:21;;;;;;;119.60;41.00;;;-6.20;99.90;;;-6.79;65.92;98538.97;4996893;28;20064;-81
2021/12/27 06:26:47;;;;;;;100.70;35.88;;;-6.30;99.90;;;-6.77;65.66;98542.25;4994773;28;20042;-81
2021/12/27 06:29:13;;;;;;;83.82;32.15;;;-6.20;99.90;;;-6.77;65.83;98534.34;5002725;28;20105;-81
2021/12/27 06:31:39;;;;;;;96.70;36.15;;;-6.30;99.90;;;-6.78;65.66;98537.97;5032696;28;20120;-81
2021/12/27 06:34:05;;;;;;;92.72;34.17;;;-6.30;99.90;;;-6.78;65.72;98527.41;5018959;28;20344;-81
2021/12/27 06:36:32;;;;;;;90.13;36.80;;;-6.30;99.90;;;-6.75;66.01;98539.44;4998950;28;20080;-81
2021/12/27 06:39:00;;;;;;;114.82;36.28;;;-6.30;99.90;;;-6.69;65.85;98532.66;5002654;28;20462;-81
2021/12/27 06:41:25;;;;;;;77.28;29.77;;;-6.30;99.90;;;-6.70;65.93;98531.03;5031189;28;20611;-81
2021/12/27 06:43:52;;;;;;;85.20;34.00;;;-6.30;99.90;;;-6.63;65.50;98532.00;5000589;28;20083;-81
2021/12/27 06:46:18;;;;;;;75.85;30.27;;;-6.20;99.90;;;-6.58;65.43;98540.22;5005857;28;20083;-81
2021/12/27 06:48:44;;;;;;;79.43;28.60;;;-6.10;99.90;;;-6.57;64.81;98531.31;5014767;28;20354;-81
2021/12/27 06:51:10;;;;;;;80.93;32.63;;;-6.00;99.90;;;-6.53;64.44;98524.69;4996391;28;20437;-81
2021/12/27 06:53:36;;;;;;;85.00;36.67;;;-6.00;99.90;;;-6.56;64.25;98525.03;5017339;28;20095;-81
2021/12/27 06:56:04;;;;;;;91.15;35.90;;;-6.00;99.90;;;-6.53;63.90;98523.88;5012766;28;20103;-81
2021/12/27 06:58:30;;;;;;;93.63;37.70;;;-6.00;99.90;;;-6.53;64.08;98534.44;5005986;28;20070;-83
2021/12/27 07:00:56;;;;;;;87.35;33.05;;;-6.00;99.90;;;-6.48;63.89;98530.28;4996890;28;20159;-81
2021/12/27 07:03:22;;;;;;;88.70;32.70;;;-6.00;99.90;;;-6.43;64.14;98530.59;5007820;28;20067;-81
2021/12/27 07:05:49;;;;;;;85.65;36.80;;;-6.00;99.90;;;-6.40;63.58;98524.97;4995615;28;20040;-81
2021/12/27 07:08:15;;;;;;;83.03;33.70;;;-6.00;99.90;;;-6.38;63.96;98527.44;4995915;28;20041;-81
2021/12/27 07:10:45;;;;;;;78.13;31.02;;;-5.90;99.90;;;-6.31;63.96;98532.84;5012252;28;20492;-81
2021/12/27 07:13:11;;;;;;;77.40;32.67;;;-5.90;99.90;;;-6.31;64.01;98520.47;4988590;28;20041;-80
2021/12/27 07:15:44;;;;;;;89.97;34.13;;;-5.90;99.90;;;-6.27;64.16;98529.69;4993943;28;20135;-81
2021/12/27 07:18:16;;;;;;;74.03;28.13;;;-5.80;99.90;;;-6.22;63.73;98531.81;4980302;28;20097;-82
2021/12/27 07:20:42;;;;;;;73.38;29.67;;;-5.80;99.90;;;-6.27;63.60;98526.22;5002839;28;20121;-81
2021/12/27 07:23:08;;;;;;;79.05;30.90;;;-5.70;99.90;;;-6.20;63.82;98530.66;4989959;28;20080;-81
2021/12/27 07:25:34;;;;;;;79.20;29.35;;;-5.80;99.90;;;-6.18;64.14;98525.19;4990714;28;20394;-81
2021/12/27 07:28:00;;;;;;;76.25;28.88;;;-5.80;99.90;;;-6.07;64.10;98516.06;4991926;28;20455;-81
2021/12/27 07:30:28;;;;;;;71.90;28.13;;;-5.60;99.90;;;-6.06;63.48;98513.22;4990920;28;20076;-81
2021/12/27 07:32:55;;;;;;;75.72;30.52;;;-5.60;99.90;;;-6.04;63.72;98516.53;5006973;28;20053;-81
2021/12/27 07:35:21;;;;;;;72.13;27.98;;;-5.60;99.90;;;-6.02;64.06;98506.63;5006070;28;20045;-81
2021/12/27 07:37:47;;;;;;;79.25;27.05;;;-5.50;99.90;;;-5.94;64.08;98505.75;4993853;28;20152;-83
2021/12/27 07:40:13;;;;;;;66.55;24.05;;;-5.50;99.90;;;-5.83;64.03;98500.00;5002249;28;20079;-81
2021/12/27 07:42:40;;;;;;;60.72;25.02;;;-5.40;99.90;;;-5.73;63.97;98505.06;4973164;28;20120;-81
2021/12/27 07:45:06;;;;;;;69.35;27.00;;;-5.40;99.90;;;-5.65;63.80;98502.34;4980728;28;20101;-81
2021/12/27 07:47:32;;;;;;;77.45;34.83;;;-5.40;99.90;;;-5.61;63.68;98503.66;4990731;28;20448;-81
2021/12/27 07:49:58;;;;;;;74.43;28.67;;;-5.20;99.90;;;-5.58;63.71;98503.28;5007118;28;20048;-81
2021/12/27 07:52:24;;;;;;;73.72;30.15;;;-5.10;99.90;;;-5.54;63.68;98509.06;4990987;28;20124;-81
2021/12/27 07:54:50;;;;;;;73.72;30.10;;;-5.00;99.90;;;-5.55;63.48;98497.66;4994346;28;20049;-81
2021/12/27 07:57:16;;;;;;;70.13;29.92;;;-4.90;99.90;;;-5.54;63.41;98501.94;4975471;28;20109;-81
2021/12/27 07:59:47;;;;;;;71.30;28.75;;;-5.00;99.90;;;-5.51;63.52;98498.13;4987225;28;20552;-81
2021/12/27 08:02:14;;;;;;;70.65;29.08;;;-4.90;99.90;;;-5.46;63.56;98495.78;4990039;28;20038;-81
2021/12/27 08:04:40;;;;;;;79.85;32.67;;;-4.90;99.90;;;-5.42;63.56;98493.59;5000377;28;20492;-81
2021/12/27 08:07:06;;;;;;;69.97;29.02;;;-4.90;99.90;;;-5.36;63.30;98492.88;4976968;28;20053;-81
2021/12/27 08:09:35;;;;;;;84.65;30.05;;;-4.90;99.90;;;-5.35;63.50;98487.41;5006608;28;20486;-80
2021/12/27 08:12:01;;;;;;;83.10;31.55;;;-4.90;99.90;;;-5.33;63.70;98489.88;4992876;28;20046;-80
2021/12/27 08:14:27;;;;;;;84.88;33.80;;;-4.90;99.90;;;-5.27;63.66;98489.16;5036050;28;20132;-81
2021/12/27 08:16:55;;;;;;;82.32;31.30;;;-4.80;99.90;;;-5.23;63.34;98479.84;4996613;28;20514;-81
2021/12/27 08:19:21;;;;;;;85.93;31.13;;;-4.70;99.90;;;-5.23;63.28;98485.16;4995695;28;20045;-81
2021/12/27 08:21:47;;;;;;;81.03;33.13;;;-4.70;99.90;;;-5.23;63.67;98479.84;4988971;28;20088;-81
2021/12/27 08:24:13;;;;;;;90.40;33.97;;;-4.60;99.90;;;-5.17;63.13;98492.34;4997013;28;20153;-81
2021/12/27 08:26:39;;;;;;;100.10;36.03;;;-4.60;99.90;;;-5.28;63.43;98483.03;5028856;28;20113;-81
2021/12/27 08:29:07;;;;;;;95.88;37.28;;;-4.60;99.90;;;-5.28;63.04;98476.94;4989237;28;20046;-81
2021/12/27 08:31:33;;;;;;;90.63;36.85;;;-4.60;99.90;;;-5.20;62.82;98473.38;5026781;28;20048;-81
2021/12/27 08:33:59;;;;;;;89.72;35.63;;;-4.60;99.90;;;-5.20;62.19;98468.91;5000649;28;20116;-81
2021/12/27 08:36:25;;;;;;;95.78;36.38;;;-4.50;99.90;;;-5.19;62.47;98473.22;5027279;28;20481;-81
2021/12/27 08:38:51;;;;;;;98.88;36.05;;;-4.50;99.90;;;-5.03;62.16;98474.88;4992542;28;20085;-81
2021/12/27 08:41:17;;;;;;;97.18;38.63;;;-4.50;99.90;;;-4.95;61.90;98473.97;5022507;28;20120;-81
2021/12/27 08:43:43;;;;;;;103.90;39.42;;;-4.50;99.90;;;-4.88;62.18;98466.94;5008611;28;20044;-81
2021/12/27 08:46:09;;;;;;;112.38;41.00;;;-4.40;99.90;;;-4.79;61.94;98463.19;5006911;28;20033;-81
2021/12/27 08:48:36;;;;;;;104.63;39.63;;;-4.30;99.90;;;-4.76;61.93;98459.34;4991632;28;20120;-81
2021/12/27 08:51:02;;;;;;;95.05;38.53;;;-4.20;99.90;;;-4.62;61.98;98461.16;4993288;28;20410;-81
2021/12/27 08:53:28;;;;;;;95.53;39.13;;;-4.20;99.90;;;-4.60;61.51;98467.91;5021414;28;20407;-81
2021/12/27 08:55:55;;;;;;;113.22;40.53;;;-4.10;99.90;;;-4.65;61.76;98467.66;4995613;28;20116;-81
2021/12/27 08:58:21;;;;;;;103.90;40.70;;;-4.10;99.90;;;-4.60;61.81;98461.81;5008552;28;20130;-81
2021/12/27 09:00:47;;;;;;;96.72;36.53;;;-4.00;99.90;;;-4.68;61.89;98456.59;4991024;28;20485;-81
2021/12/27 09:03:13;;;;;;;104.78;41.53;;;-4.00;99.90;;;-4.70;61.92;98445.41;4997422;28;20491;-81
2021/12/27 09:05:40;;;;;;;107.75;42.95;;;-4.10;99.90;;;-4.66;62.33;98444.81;5001429;28;20083;-83
2021/12/27 09:08:06;;;;;;;103.15;42.95;;;-4.10;99.90;;;-4.71;61.98;98447.19;4980288;28;20061;-83
2021/12/27 09:10:33;;;;;;;99.28;38.15;;;-4.00;99.90;;;-4.79;62.02;98447.31;4981654;28;20550;-82
2021/12/27 09:13:00;;;;;;;100.75;39.28;;;-4.10;99.90;;;-4.86;62.06;98454.31;4998157;28;20053;-80
2021/12/27 09:15:27;;;;;;;106.50;40.47;;;-4.20;99.90;;;-4.77;61.72;98439.19;5032504;28;20060;-79
2021/12/27 09:17:56;;;;;;;105.90;39.53;;;-4.10;99.90;;;-4.78;62.01;98442.81;4977734;28;20132;-79
2021/12/27 09:20:24;;;;;;;112.22;42.58;;;-4.20;99.90;;;-4.78;62.37;98438.38;5010565;28;20046;-80
2021/12/27 09:22:50;;;;;;;119.82;47.58;;;-4.10;99.90;;;-4.67;62.25;98445.03;5011854;28;20522;-82
2021/12/27 09:25:16;;;;;;;108.03;43.47;;;-4.20;99.90;;;-4.57;62.11;98448.19;5028349;28;20128;-82
2021/12/27 09:27:45;;;;;;;256.40;98.75;;;-4.10;99.90;;;-4.62;61.98;98434.69;4996239;28;20044;-81
2021/12/27 09:30:11;;;;;;;117.30;42.97;;;-4.00;99.90;;;-4.66;61.72;98434.22;4995614;28;20776;-82
2021/12/27 09:32:37;;;;;;;103.60;39.90;;;-4.00;99.90;;;-4.73;62.24;98424.56;5011949;28;20121;-82
2021/12/27 09:35:04;;;;;;;116.13;47.35;;;-4.00;99.90;;;-4.72;61.97;98434.16;4993809;28;20046;-82
2021/12/27 09:37:30;;;;;;;123.07;49.22;;;-4.00;99.90;;;-4.65;62.24;98433.25;4993566;28;20443;-82
2021/12/27 09:39:56;;;;;;;131.38;49.83;;;-4.10;99.90;;;-4.62;62.26;98429.41;5012513;28;20260;-82
2021/12/27 09:42:25;;;;;;;112.72;49.25;;;-4.00;99.90;;;-4.54;62.05;98426.66;5003524;28;20308;-83
2021/12/27 09:44:52;;;;;;;89.47;37.78;;;-4.10;99.90;;;-4.49;61.77;98420.78;5018039;28;20353;-82
2021/12/27 09:47:18;;;;;;;102.80;38.08;;;-4.00;99.90;;;-4.54;61.92;98417.88;5013462;28;20033;-82
2021/12/27 09:49:46;;;;;;;78.45;35.83;;;-3.90;99.90;;;-4.55;61.74;98419.72;5010823;28;20458;-83
2021/12/27 09:52:12;;;;;;;111.30;41.20;;;-3.80;99.90;;;-4.56;61.42;98420.72;4999416;28;20069;-82
2021/12/27 09:54:38;;;;;;;114.75;41.70;;;-3.90;99.90;;;-4.52;62.31;98419.34;4995301;28;20116;-81
2021/12/27 09:57:04;;;;;;;96.88;46.15;;;-4.00;99.90;;;-4.36;61.93;98420.94;5018239;28;20088;-82
2021/12/27 09:59:30;;;;;;;105.15;47.05;;;-3.90;99.90;;;-4.29;61.69;98428.97;5012688;28;20065;-82
2021/12/27 10:01:57;;;;;;;97.25;36.70;;;-3.90;99.90;;;-4.25;61.45;98427.56;4998818;28;20480;-82
2021/12/27 10:04:26;;;;;;;111.75;43.70;;;-3.80;99.90;;;-4.25;61.45;98420.47;5001329;28;20044;-82
2021/12/27 10:06:52;;;;;;;100.55;43.72;;;-3.70;99.90;;;-4.29;61.49;98424.47;4980576;28;20481;-82